Time;durP1;ratioP1;P1;durP2;ratioP2;P2;SDS_P1;SDS_P2;PMS_P1;PMS_P2;Temp;Humidity;BMP_temperature;BMP_pressure;BME280_temperature;BME280_humidity;BME280_pressure;Samples;Min_cycle;Max_cycle;Signal;HPM_P1;HPM_P2
2021/07/16 03:33:15;;;;;;;27.13;18.20;;;;;;;21.70;65.72;98819.75;7048055;23;20219;-84
2021/07/16 03:36:36;;;;;;;26.63;19.20;;;;;;;21.73;65.52;98808.25;6896255;28;20216;-85
2021/07/16 03:39:58;;;;;;;27.97;17.77;;;;;;;21.32;66.04;98809.31;6895349;28;20235;-86
2021/07/16 03:43:20;;;;;;;26.60;18.47;;;;;;;21.46;66.38;98807.66;6896877;28;20599;-87
2021/07/16 03:46:41;;;;;;;31.60;19.97;;;;;;;21.24;66.21;98802.47;6896187;28;20258;-84
2021/07/16 03:50:05;;;;;;;28.40;21.13;;;;;;;21.03;67.30;98816.44;6896378;28;20690;-85
2021/07/16 03:53:27;;;;;;;29.17;19.50;;;;;;;21.54;66.12;98818.91;6895905;28;20234;-85
2021/07/16 03:56:49;;;;;;;28.87;19.17;;;;;;;21.47;65.58;98803.81;6895843;28;20243;-86
2021/07/16 04:00:13;;;;;;;33.17;21.20;;;;;;;21.78;65.44;98816.47;6895307;28;20255;-85
2021/07/16 04:03:35;;;;;;;29.93;20.80;;;;;;;21.45;65.59;98812.34;6895516;28;20216;-85
2021/07/16 04:06:58;;;;;;;27.20;20.10;;;;;;;21.51;65.87;98821.38;6895616;28;20678;-86
2021/07/16 04:10:21;;;;;;;31.90;21.87;;;;;;;21.49;66.27;98813.44;6898633;28;20212;-85
2021/07/16 04:13:43;;;;;;;32.20;23.37;;;;;;;21.56;66.02;98810.41;6895436;28;20270;-85
2021/07/16 04:17:07;;;;;;;30.10;21.57;;;;;;;21.82;65.26;98823.88;6896473;28;20673;-85
2021/07/16 04:20:30;;;;;;;37.23;22.77;;;;;;;21.83;65.54;98811.78;6894202;28;20214;-85
2021/07/16 04:23:53;;;;;;;36.90;22.43;;;;;;;21.82;65.16;98817.53;6894764;28;20208;-86
2021/07/16 04:27:14;;;;;;;33.07;21.97;;;;;;;21.82;65.14;98820.28;6894788;28;20207;-85
2021/07/16 04:30:36;;;;;;;29.97;21.87;;;;;;;21.77;65.23;98804.66;6894021;28;20317;-85
2021/07/16 04:33:58;;;;;;;21.43;18.17;;;;;;;21.78;64.83;98821.97;6893492;28;20228;-86
2021/07/16 04:37:19;;;;;;;30.23;19.60;;;;;;;21.88;65.17;98821.94;6894723;28;20602;-84
2021/07/16 04:40:42;;;;;;;23.60;18.60;;;;;;;21.78;64.82;98821.97;6893910;28;20286;-85
2021/07/16 04:44:04;;;;;;;22.47;18.20;;;;;;;21.54;66.20;98848.28;6894984;28;20216;-85
2021/07/16 04:47:26;;;;;;;19.60;17.00;;;;;;;21.91;65.20;98844.19;6895019;28;20689;-86
2021/07/16 04:50:47;;;;;;;20.93;18.57;;;;;;;21.77;65.65;98843.09;6893619;28;20225;-85
2021/07/16 04:54:10;;;;;;;19.60;17.33;;;;;;;21.76;64.87;98821.41;6894414;28;20736;-86
2021/07/16 04:57:48;;;;;;;22.37;17.30;;;;;;;21.90;65.10;98844.47;6893619;28;20295;-85
2021/07/16 05:01:09;;;;;;;21.87;17.33;;;;;;;21.92;64.88;98843.09;6810088;29;20625;-85
2021/07/16 05:04:31;;;;;;;19.27;16.47;;;;;;;21.86;64.88;98852.41;6812254;29;20222;-86
2021/07/16 05:07:52;;;;;;;21.60;16.07;;;;;;;21.96;64.54;98857.06;6811033;29;20773;-85
2021/07/16 05:11:15;;;;;;;23.30;17.33;;;;;;;21.96;65.10;98849.63;6811393;29;20307;-86
2021/07/16 05:14:38;;;;;;;18.50;15.93;;;;;;;22.10;64.44;98856.22;6810423;29;20626;-87
2021/07/16 05:18:00;;;;;;;18.93;16.07;;;;;;;21.89;64.54;98859.28;6813109;29;21021;-84
2021/07/16 05:21:21;;;;;;;20.23;15.40;;;;;;;21.82;64.96;98864.22;6810664;29;20230;-85
2021/07/16 05:24:43;;;;;;;18.20;15.20;;;;;;;21.96;64.41;98848.84;6811788;29;20211;-84
2021/07/16 05:28:05;;;;;;;15.90;13.83;;;;;;;22.40;63.33;98866.28;6812569;29;20205;-84
2021/07/16 05:31:28;;;;;;;18.60;15.77;;;;;;;21.92;64.54;98850.47;6796080;29;20236;-84
2021/07/16 05:34:50;;;;;;;18.23;14.30;;;;;;;22.05;64.71;98869.97;6785401;29;20230;-84
2021/07/16 05:38:12;;;;;;;16.87;14.13;;;;;;;22.29;63.93;98867.41;6829808;28;20209;-84
2021/07/16 05:41:33;;;;;;;17.77;14.37;;;;;;;22.19;63.59;98854.53;6856716;28;20233;-85
2021/07/16 05:44:55;;;;;;;16.73;13.67;;;;;;;22.34;63.72;98883.91;6865866;28;20220;-85
2021/07/16 05:48:20;;;;;;;18.37;14.13;;;;;;;22.42;63.33;98889.66;6865726;28;20207;-85
2021/07/16 05:51:42;;;;;;;15.37;13.60;;;;;;;22.08;63.79;98893.31;6839889;28;20234;-84
2021/07/16 05:55:05;;;;;;;14.40;12.90;;;;;;;22.40;63.17;98899.28;6842174;28;20718;-85
2021/07/16 05:58:26;;;;;;;15.77;14.10;;;;;;;22.09;64.35;98901.28;6863803;28;20288;-86
2021/07/16 06:01:48;;;;;;;15.97;13.77;;;;;;;22.29;64.13;98903.97;6845412;29;20566;-86
2021/07/16 06:05:12;;;;;;;19.60;15.37;;;;;;;22.20;63.87;98907.56;6844698;28;20225;-85
2021/07/16 06:08:33;;;;;;;16.20;13.47;;;;;;;22.13;64.04;98907.03;6844729;29;20224;-86
2021/07/16 06:11:55;;;;;;;14.20;12.87;;;;;;;22.22;63.92;98910.84;6844947;28;20244;-86
2021/07/16 06:15:17;;;;;;;15.53;13.50;;;;;;;22.30;63.79;98904.81;6845051;29;20714;-85
2021/07/16 06:18:39;;;;;;;14.50;13.00;;;;;;;22.39;63.93;98906.72;6850188;29;20209;-86
2021/07/16 06:22:02;;;;;;;15.30;12.93;;;;;;;22.50;63.82;98915.78;6847067;29;20235;-85
2021/07/16 06:25:23;;;;;;;13.70;12.30;;;;;;;22.46;63.10;98889.94;6848738;28;20214;-86
2021/07/16 06:28:45;;;;;;;16.00;12.57;;;;;;;23.02;62.46;98914.19;6871234;28;20213;-85
2021/07/16 06:32:07;;;;;;;15.53;13.00;;;;;;;23.01;62.13;98904.28;6867815;28;20242;-85
2021/07/16 06:35:29;;;;;;;14.43;13.03;;;;;;;23.13;61.42;98906.72;6870340;28;20221;-85
2021/07/16 06:38:52;;;;;;;13.83;12.13;;;;;;;22.99;61.51;98891.91;6863755;28;20224;-85
2021/07/16 06:42:13;;;;;;;13.33;11.90;;;;;;;23.23;62.05;98914.94;6870480;28;20230;-85
2021/07/16 06:45:35;;;;;;;13.07;10.97;;;;;;;22.97;61.83;98916.97;6873274;28;20217;-84
2021/07/16 06:48:57;;;;;;;15.93;12.20;;;;;;;23.07;61.45;98914.16;6870626;28;20248;-84
2021/07/16 06:52:18;;;;;;;13.43;12.03;;;;;;;22.81;61.79;98925.56;6852998;28;20226;-87
2021/07/16 06:55:41;;;;;;;12.63;11.43;;;;;;;22.84;62.22;98908.50;6866540;28;20225;-85
2021/07/16 06:59:04;;;;;;;12.13;10.97;;;;;;;23.28;61.31;98926.75;6871280;28;20211;-85
2021/07/16 07:02:26;;;;;;;11.63;10.53;;;;;;;23.22;61.10;98938.88;6871269;28;20240;-85
2021/07/16 07:05:47;;;;;;;10.67;9.67;;;;;;;23.52;60.49;98932.38;6864860;28;20247;-85
2021/07/16 07:09:09;;;;;;;10.67;9.63;;;;;;;23.48;59.86;98929.38;6870106;28;20216;-86
2021/07/16 07:12:32;;;;;;;11.17;10.07;;;;;;;23.39;59.66;98939.34;6864169;28;20582;-85
2021/07/16 07:15:53;;;;;;;11.83;10.20;;;;;;;23.44;59.84;98939.31;6866383;28;20221;-86
2021/07/16 07:19:16;;;;;;;12.77;10.43;;;;;;;23.37;59.65;98926.97;6869881;28;20215;-87
2021/07/16 07:22:39;;;;;;;11.20;9.93;;;;;;;23.68;59.09;98942.19;6865910;28;20227;-85
2021/07/16 07:26:01;;;;;;;10.50;9.17;;;;;;;24.44;57.06;98937.69;6852439;28;20813;-85
2021/07/16 07:29:24;;;;;;;9.40;8.50;;;;;;;24.36;56.77;98949.34;6847836;28;20209;-84
2021/07/16 07:32:54;;;;;;;10.03;9.03;;;;;;;24.08;57.09;98931.69;6842357;28;20242;-86
2021/07/16 07:36:16;;;;;;;9.50;8.60;;;;;;;24.50;56.58;98951.13;6842236;29;20195;-86
2021/07/16 07:39:37;;;;;;;13.23;8.37;;;;;;;24.41;57.28;98952.88;6841237;29;20668;-84
2021/07/16 07:43:00;;;;;;;7.93;7.13;;;;;;;24.44;56.82;98940.44;6842074;29;20221;-84
2021/07/16 07:46:23;;;;;;;7.03;6.43;;;;;;;25.72;53.86;98941.88;6854137;28;20205;-86
2021/07/16 07:49:45;;;;;;;7.27;6.67;;;;;;;25.60;52.77;98954.50;6842293;29;20794;-87
2021/07/16 07:53:07;;;;;;;6.33;5.80;;;;;;;26.79;49.25;98945.31;6843204;28;20236;-87
2021/07/16 07:56:29;;;;;;;6.13;5.50;;;;;;;26.77;48.87;98950.34;6841651;29;20567;-89
2021/07/16 07:59:50;;;;;;;6.73;5.70;;;;;;;24.84;53.47;98954.63;6844517;28;20207;-87
2021/07/16 08:03:13;;;;;;;6.70;6.20;;;;;;;25.41;53.25;98940.69;6849701;28;20589;-87
2021/07/16 08:06:35;;;;;;;6.00;5.40;;;;;;;25.19;52.92;98962.47;6847794;29;20212;-89
2021/07/16 08:09:56;;;;;;;6.07;5.53;;;;;;;24.91;53.18;98966.16;6847481;29;20680;-87
2021/07/16 08:13:18;;;;;;;6.20;5.70;;;;;;;24.68;53.21;98883.41;6849180;28;20237;-87
2021/07/16 08:16:46;;;;;;;5.73;5.23;;;;;;;25.02;53.25;98972.38;6848532;28;20206;-87
2021/07/16 08:20:10;;;;;;;5.90;5.30;;;;;;;25.25;53.51;98950.28;6865777;28;20669;-87
2021/07/16 08:23:32;;;;;;;7.30;6.60;;;;;;;25.32;54.57;98963.75;6871616;28;20215;-89
2021/07/16 08:26:53;;;;;;;7.90;7.10;;;;;;;26.42;52.63;98962.84;6875092;28;20219;-90
2021/07/16 08:30:16;;;;;;;7.27;6.17;;;;;;;27.92;49.16;98967.25;6877162;28;20206;-87
2021/07/16 08:33:38;;;;;;;7.17;6.47;;;;;;;26.10;51.68;98950.97;6870239;28;20231;-87
2021/07/16 08:37:01;;;;;;;6.53;5.93;;;;;;;26.00;51.60;98987.06;6868553;28;20200;-90
2021/07/16 08:40:23;;;;;;;7.37;6.67;;;;;;;26.14;51.40;98954.78;6871945;28;20214;-89
2021/07/16 08:43:45;;;;;;;8.00;6.80;;;;;;;26.19;51.14;98968.53;6872240;28;20213;-87
2021/07/16 08:47:07;;;;;;;7.90;7.13;;;;;;;25.83;51.95;98976.53;6869545;28;20217;-88
2021/07/16 08:50:29;;;;;;;7.23;6.63;;;;;;;26.41;50.79;98974.19;6852270;28;20577;-88
2021/07/16 08:53:55;;;;;;;6.47;5.90;;;;;;;26.22;49.93;98984.50;6867909;28;20591;-87
2021/07/16 08:57:18;;;;;;;6.80;6.20;;;;;;;26.34;50.90;98966.31;6876354;28;20587;-88
2021/07/16 09:00:40;;;;;;;7.30;6.70;;;;;;;26.33;50.24;98986.81;6873600;28;20236;-89
2021/07/16 09:04:04;;;;;;;7.77;7.17;;;;;;;26.29;50.15;98979.38;6870427;28;20208;-85
2021/07/16 09:07:26;;;;;;;8.00;7.20;;;;;;;26.19;50.53;98980.38;6851669;28;20213;-90
2021/07/16 09:10:51;;;;;;;8.00;7.30;;;;;;;25.60;51.63;98960.84;6840935;28;20234;-88
2021/07/16 09:14:20;;;;;;;8.03;7.13;;;;;;;25.48;52.66;98985.31;6845849;29;20222;-88
2021/07/16 09:17:45;;;;;;;6.67;5.97;;;;;;;26.27;50.38;98976.97;6850137;29;20216;-87
2021/07/16 09:21:09;;;;;;;6.33;5.73;;;;;;;26.25;50.25;98995.75;6847519;28;20275;-91
2021/07/16 09:24:32;;;;;;;6.03;5.40;;;;;;;25.55;49.71;98896.59;6850256;28;20229;-88
2021/07/16 09:27:55;;;;;;;5.87;5.30;;;;;;;25.74;50.30;98930.53;6851387;29;20213;-89
2021/07/16 09:31:18;;;;;;;5.40;4.83;;;;;;;25.48;50.30;98985.31;6921180;23;20233;-82
2021/07/16 09:34:39;;;;;;;5.27;4.87;;;;;;;26.04;49.25;98979.81;6925542;28;20227;-86
2021/07/16 09:38:05;;;;;;;7.07;4.97;;;;;;;25.58;51.29;98979.66;6927355;28;20579;-81
2021/07/16 09:41:26;;;;;;;4.73;4.33;;;;;;;27.24;48.09;98974.88;6916755;28;20301;-82
2021/07/16 09:44:58;;;;;;;4.40;3.73;;;;;;;28.59;43.73;98961.41;6898595;28;20288;-87
2021/07/16 09:48:22;;;;;;;3.63;3.30;;;;;;;28.54;44.94;98971.84;6897567;28;20185;-83
2021/07/16 09:51:44;;;;;;;3.40;3.10;;;;;;;28.05;45.61;98985.78;6897208;28;20236;-86
2021/07/16 09:55:09;;;;;;;3.83;3.53;;;;;;;27.93;44.24;98952.25;6894402;28;20726;-84
2021/07/16 09:58:30;;;;;;;4.43;4.03;;;;;;;28.57;45.44;98976.72;6894103;28;20209;-83
2021/07/16 10:01:54;;;;;;;4.40;4.00;;;;;;;27.55;46.01;98970.31;6889389;28;20224;-84
2021/07/16 10:05:16;;;;;;;4.60;4.17;;;;;;;27.74;47.34;98979.28;6893062;28;20207;-84
2021/07/16 10:08:39;;;;;;;4.70;3.60;;;;;;;28.83;44.30;98974.94;6866292;28;20198;-85
2021/07/16 10:12:01;;;;;;;4.50;3.97;;;;;;;29.21;44.04;98963.03;6873176;28;20257;-85
2021/07/16 10:15:23;;;;;;;5.50;4.67;;;;;;;27.41;45.92;98972.28;6894161;28;20594;-85
2021/07/16 10:18:46;;;;;;;3.60;3.30;;;;;;;27.78;44.03;98972.84;6892381;28;20328;-85
2021/07/16 10:22:08;;;;;;;3.70;3.50;;;;;;;27.35;46.78;98970.75;6893104;28;20261;-84
2021/07/16 10:25:30;;;;;;;4.07;2.93;;;;;;;26.92;45.29;98966.63;6891340;28;20215;-83
2021/07/16 10:28:52;;;;;;;2.90;2.70;;;;;;;28.54;43.28;98971.84;6892648;28;20217;-83
2021/07/16 10:32:40;;;;;;;3.40;3.10;;;;;;;29.60;42.15;98967.72;6893537;28;20232;-86
2021/07/16 10:36:04;;;;;;;3.80;3.40;;;;;;;29.64;42.57;98969.50;6891529;28;20229;-83
2021/07/16 10:39:43;;;;;;;3.60;3.30;;;;;;;29.15;41.43;98963.47;6878978;28;20218;-84
2021/07/16 10:43:05;;;;;;;2.90;2.70;;;;;;;28.00;43.04;98966.50;6874952;28;20232;-85
2021/07/16 10:46:31;;;;;;;2.90;2.70;;;;;;;28.94;42.02;98976.25;6891596;28;20202;-84
2021/07/16 10:49:54;;;;;;;7.80;3.03;;;;;;;28.10;43.08;98960.72;6890452;28;20213;-84
2021/07/16 10:53:19;;;;;;;2.60;2.40;;;;;;;29.09;42.61;98946.16;6891960;28;20231;-84
2021/07/16 10:56:44;;;;;;;2.90;2.40;;;;;;;29.94;40.28;98959.38;6892012;28;20229;-83
2021/07/16 11:00:06;;;;;;;2.80;2.60;;;;;;;29.81;40.61;98960.38;6891397;28;20209;-84
2021/07/16 11:03:39;;;;;;;2.70;2.50;;;;;;;29.23;42.04;98955.19;6891844;28;20696;-84
2021/07/16 11:07:00;;;;;;;4.50;2.90;;;;;;;28.26;43.35;98962.78;6891438;28;20193;-84
2021/07/16 11:10:48;;;;;;;4.13;3.27;;;;;;;28.82;43.94;98957.44;6891007;28;20204;-85
2021/07/16 11:14:23;;;;;;;3.50;3.10;;;;;;;28.38;44.21;98957.50;6881660;28;20258;-84
2021/07/16 11:17:55;;;;;;;3.60;3.23;;;;;;;29.00;43.11;98975.00;6864716;28;20216;-84
2021/07/16 11:21:58;;;;;;;2.80;2.60;;;;;;;28.55;43.34;98992.88;6863784;28;20223;-84
2021/07/16 11:25:20;;;;;;;3.67;2.80;;;;;;;29.37;43.50;98980.84;6836370;28;20222;-84
2021/07/16 11:28:43;;;;;;;2.60;2.40;;;;;;;29.54;39.92;98978.16;6874576;28;20209;-84
2021/07/16 11:32:13;;;;;;;2.27;2.07;;;;;;;29.53;40.28;98972.91;6890703;28;20233;-85
2021/07/16 11:35:36;;;;;;;2.87;2.30;;;;;;;28.62;41.42;98973.81;6891100;28;20688;-84
2021/07/16 11:38:58;;;;;;;3.00;2.80;;;;;;;28.01;45.01;98977.28;6893050;28;20219;-83
2021/07/16 11:42:20;;;;;;;4.20;3.10;;;;;;;28.10;45.35;98960.72;6893934;28;20234;-84
2021/07/16 11:45:44;;;;;;;3.30;3.00;;;;;;;27.73;45.40;98966.59;6893691;28;20272;-84
2021/07/16 11:49:23;;;;;;;3.20;2.97;;;;;;;27.99;46.41;98979.56;6888961;28;20282;-84
2021/07/16 11:52:48;;;;;;;3.30;2.80;;;;;;;27.53;45.68;98972.56;6903322;28;20231;-82
2021/07/16 11:56:13;;;;;;;3.47;3.20;;;;;;;27.69;45.68;98951.69;6891536;28;20322;-83
2021/07/16 11:59:34;;;;;;;2.60;2.40;;;;;;;27.55;45.05;98946.19;6878761;28;20209;-82
2021/07/16 12:03:05;;;;;;;2.80;2.60;;;;;;;27.26;46.13;98933.84;6869689;28;20233;-83
2021/07/16 12:06:27;;;;;;;4.40;2.53;;;;;;;27.35;46.47;98926.44;6865509;28;20197;-83
2021/07/16 12:09:49;;;;;;;3.67;2.70;;;;;;;27.64;45.52;98951.81;6880727;28;20244;-82
2021/07/16 12:13:11;;;;;;;2.50;2.30;;;;;;;28.05;44.17;98961.66;6872375;28;20236;-82
2021/07/16 12:16:32;;;;;;;3.03;2.60;;;;;;;27.75;44.09;98953.22;6865529;28;20244;-83
2021/07/16 12:19:57;;;;;;;2.70;2.50;;;;;;;27.16;45.84;98954.28;6865838;28;20239;-83
2021/07/16 12:23:19;;;;;;;2.70;2.50;;;;;;;28.20;44.99;98952.16;6865672;28;20237;-83
2021/07/16 12:26:40;;;;;;;2.43;2.23;;;;;;;29.13;42.09;98966.56;6864986;28;20209;-83
2021/07/16 12:30:05;;;;;;;4.77;2.50;;;;;;;29.52;41.61;98952.63;6875267;28;20205;-83
2021/07/16 12:33:32;;;;;;;2.87;2.07;;;;;;;30.48;39.89;98961.50;6894486;28;20230;-84
2021/07/16 12:37:08;;;;;;;2.47;2.27;;;;;;;29.05;41.09;98955.44;6893811;28;20215;-84
2021/07/16 12:40:31;;;;;;;2.80;2.27;;;;;;;28.41;43.35;98948.56;6886851;28;20189;-83
2021/07/16 12:43:53;;;;;;;2.53;2.30;;;;;;;27.86;43.63;98958.25;6891821;28;20209;-84
2021/07/16 12:47:16;;;;;;;2.20;2.10;;;;;;;27.93;44.11;98966.97;6893377;28;20204;-84
2021/07/16 12:50:38;;;;;;;1.83;1.73;;;;;;;28.40;41.11;98962.75;6891858;28;20237;-84
2021/07/16 12:54:01;;;;;;;2.37;2.27;;;;;;;27.63;44.49;98962.09;6891309;28;20216;-83
2021/07/16 12:57:24;;;;;;;2.70;2.50;;;;;;;27.93;44.65;98966.97;6892519;28;20286;-83
2021/07/16 13:00:56;;;;;;;2.53;2.03;;;;;;;28.61;44.85;98964.66;6888376;28;20236;-84
2021/07/16 13:04:20;;;;;;;2.50;2.30;;;;;;;29.12;42.29;98967.72;6870427;28;20198;-84
2021/07/16 13:07:42;;;;;;;2.20;2.10;;;;;;;29.56;41.14;98961.16;6870522;28;20210;-84
2021/07/16 13:11:12;;;;;;;2.23;2.10;;;;;;;29.52;40.94;98960.97;6869065;28;20227;-83
2021/07/16 13:14:35;;;;;;;2.73;2.20;;;;;;;30.05;39.37;98969.03;6875201;28;20221;-84
2021/07/16 13:18:06;;;;;;;3.20;2.00;;;;;;;30.19;39.79;98959.41;6893710;28;20205;-84
2021/07/16 13:21:29;;;;;;;2.23;2.13;;;;;;;29.97;40.48;98944.84;6894810;28;20310;-83
2021/07/16 13:24:51;;;;;;;2.53;2.00;;;;;;;29.77;40.66;98967.75;6894915;28;20661;-84
2021/07/16 13:28:14;;;;;;;2.10;2.00;;;;;;;30.06;40.84;98962.31;6893455;28;20669;-83
2021/07/16 13:31:35;;;;;;;3.23;2.20;;;;;;;30.26;40.77;98973.63;6893732;28;20245;-83
2021/07/16 13:34:57;;;;;;;2.10;2.00;;;;;;;30.06;39.94;98963.16;6894251;28;20229;-83
2021/07/16 13:38:19;;;;;;;2.50;2.30;;;;;;;29.37;40.66;98975.31;6884113;28;20205;-84
2021/07/16 13:41:41;;;;;;;2.67;2.20;;;;;;;29.56;40.91;98967.56;6891392;28;20228;-84
2021/07/16 13:45:05;;;;;;;2.00;1.90;;;;;;;28.86;40.78;98954.84;6893906;28;20205;-83
2021/07/16 13:48:27;;;;;;;2.17;2.00;;;;;;;28.33;44.18;98949.31;6891270;28;20212;-83
2021/07/16 13:51:49;;;;;;;2.10;2.00;;;;;;;28.05;44.57;98980.25;6892994;28;20259;-84
2021/07/16 13:55:11;;;;;;;3.03;2.60;;;;;;;28.35;44.54;98971.16;6892841;28;20229;-83
2021/07/16 13:58:32;;;;;;;3.77;1.90;;;;;;;28.82;43.61;98984.38;6892794;28;20204;-83
2021/07/16 14:01:56;;;;;;;5.30;1.70;;;;;;;28.58;41.97;98968.09;6893204;28;20235;-83
2021/07/16 14:05:20;;;;;;;2.27;1.83;;;;;;;27.51;44.96;98970.13;6893372;28;20215;-83
2021/07/16 14:08:42;;;;;;;2.43;2.00;;;;;;;28.47;42.41;98986.16;6892650;28;20205;-84
2021/07/16 14:12:04;;;;;;;2.07;1.87;;;;;;;28.76;43.08;98985.66;6892912;28;20217;-83
2021/07/16 14:15:26;;;;;;;1.90;1.80;;;;;;;28.46;43.51;98976.19;6893461;28;20232;-83
2021/07/16 14:18:49;;;;;;;2.13;1.73;;;;;;;28.64;43.92;98954.88;6895475;28;20219;-83
2021/07/16 14:22:10;;;;;;;1.93;1.73;;;;;;;28.39;42.49;98975.81;6899836;28;20568;-83
2021/07/16 14:25:32;;;;;;;2.30;1.90;;;;;;;28.83;43.25;98986.84;6901326;28;20489;-83
2021/07/16 14:28:54;;;;;;;1.93;1.80;;;;;;;29.19;43.21;98983.94;6906306;28;20236;-83
2021/07/16 14:32:16;;;;;;;1.90;1.80;;;;;;;29.09;45.13;98962.81;6908366;28;20263;-81
2021/07/16 14:35:39;;;;;;;2.00;1.77;;;;;;;29.28;43.29;98963.38;6908517;28;20224;-81
2021/07/16 14:39:01;;;;;;;2.00;1.90;;;;;;;29.22;44.22;98966.59;6909350;28;20201;-82
2021/07/16 14:42:22;;;;;;;2.73;2.53;;;;;;;29.41;45.11;98970.75;6906613;28;20220;-84
2021/07/16 14:45:44;;;;;;;5.00;4.50;;;;;;;29.29;45.26;98950.28;6910560;28;20217;-83
2021/07/16 14:49:06;;;;;;;2.30;2.10;;;;;;;29.13;45.47;98932.44;6908904;28;20208;-82
2021/07/16 14:52:29;;;;;;;2.10;1.93;;;;;;;29.44;45.13;98970.13;6909196;28;20225;-84
2021/07/16 14:55:51;;;;;;;1.97;1.87;;;;;;;29.33;43.34;98954.06;6900669;28;20230;-86
2021/07/16 14:59:12;;;;;;;2.47;1.80;;;;;;;29.41;43.09;98970.75;6872477;28;20216;-83
2021/07/16 15:02:34;;;;;;;2.77;1.80;;;;;;;29.25;43.17;98966.78;6874947;28;20221;-83
2021/07/16 15:05:56;;;;;;;2.30;2.10;;;;;;;29.33;42.56;98963.22;6876691;28;20205;-84
2021/07/16 15:09:19;;;;;;;2.00;1.67;;;;;;;29.69;41.29;98961.03;6869776;28;20204;-84
2021/07/16 15:12:40;;;;;;;2.20;2.00;;;;;;;29.85;41.25;98948.25;6882865;28;20229;-84
2021/07/16 15:16:03;;;;;;;2.33;2.13;;;;;;;29.85;39.20;98967.72;6897798;28;20228;-83
2021/07/16 15:19:26;;;;;;;2.43;2.10;;;;;;;29.29;42.16;98966.94;6895656;28;20232;-85
2021/07/16 15:22:49;;;;;;;2.30;1.70;;;;;;;29.66;41.49;98956.09;6896598;28;20255;-85
2021/07/16 15:26:12;;;;;;;1.70;1.60;;;;;;;29.71;40.89;98969.03;6898394;28;20215;-84
2021/07/16 15:29:34;;;;;;;2.43;1.90;;;;;;;29.02;41.50;98900.56;6895355;28;20208;-84
2021/07/16 15:32:55;;;;;;;1.90;1.80;;;;;;;30.02;40.83;98948.25;6926451;23;20236;-84
2021/07/16 15:36:17;;;;;;;3.37;2.17;;;;;;;29.28;39.89;98907.81;6920237;28;20273;-85
2021/07/16 15:39:39;;;;;;;1.83;1.73;;;;;;;30.42;38.41;98957.25;6913145;28;20212;-85
2021/07/16 15:43:02;;;;;;;2.03;1.70;;;;;;;30.15;38.72;98958.44;6895626;28;20308;-85
2021/07/16 15:46:25;;;;;;;2.67;2.03;;;;;;;30.37;38.37;98926.81;6895237;28;20207;-85
2021/07/16 15:49:47;;;;;;;2.67;1.63;;;;;;;29.69;38.75;98947.13;6896213;28;20740;-84
2021/07/16 15:53:09;;;;;;;2.63;1.90;;;;;;;30.16;39.36;98954.50;6896389;28;20228;-85
2021/07/16 15:56:30;;;;;;;1.70;1.60;;;;;;;30.07;39.30;98931.41;6870906;28;20225;-85
2021/07/16 15:59:53;;;;;;;1.70;1.60;;;;;;;29.89;39.78;98918.66;6879201;28;20339;-85
2021/07/16 16:03:17;;;;;;;1.80;1.63;;;;;;;29.62;39.73;98944.03;6895673;28;20588;-85
2021/07/16 16:06:39;;;;;;;4.00;2.10;;;;;;;29.19;40.20;98936.72;6895673;28;20650;-85
2021/07/16 16:10:00;;;;;;;1.80;1.70;;;;;;;29.21;39.13;98935.25;6895461;28;20215;-84
2021/07/16 16:13:22;;;;;;;2.20;2.00;;;;;;;28.65;40.98;98939.88;6895964;28;20222;-83
2021/07/16 16:16:45;;;;;;;1.70;1.60;;;;;;;29.56;40.99;98950.06;6895071;28;20228;-85
2021/07/16 16:20:08;;;;;;;4.00;1.90;;;;;;;30.10;40.12;98953.03;6894573;28;20220;-84
2021/07/16 16:23:30;;;;;;;2.90;1.77;;;;;;;29.59;39.53;98914.09;6894390;28;20235;-85
2021/07/16 16:26:52;;;;;;;1.73;1.63;;;;;;;30.17;39.90;98955.31;6894105;28;20216;-85
2021/07/16 16:30:18;;;;;;;1.60;1.50;;;;;;;30.47;38.56;98954.28;6893554;28;20576;-85
2021/07/16 16:33:41;;;;;;;1.83;1.70;;;;;;;30.53;38.69;98955.75;6894211;28;20195;-84
2021/07/16 16:37:04;;;;;;;1.70;1.60;;;;;;;30.37;39.28;98943.53;6894159;28;20237;-84
2021/07/16 16:40:26;;;;;;;2.40;1.50;;;;;;;29.85;36.78;98953.81;6891967;28;20243;-85
2021/07/16 16:43:48;;;;;;;1.20;1.20;;;;;;;29.95;36.20;98958.25;6889389;28;20665;-85
2021/07/16 16:47:10;;;;;;;3.73;1.50;;;;;;;30.29;36.59;98961.84;6894268;28;20201;-84
2021/07/16 16:50:33;;;;;;;2.10;1.30;;;;;;;30.48;35.48;98961.50;6894095;28;20224;-85
2021/07/16 16:53:56;;;;;;;1.43;1.33;;;;;;;30.24;36.35;98950.91;6894551;28;20697;-85
2021/07/16 16:57:18;;;;;;;1.50;1.40;;;;;;;30.28;36.66;98973.31;6893947;28;20232;-84
2021/07/16 17:00:40;;;;;;;1.30;1.30;;;;;;;29.79;37.38;98957.91;6893421;28;20228;-84
2021/07/16 17:04:01;;;;;;;2.70;1.40;;;;;;;30.17;37.01;98949.75;6893975;28;20206;-84
2021/07/16 17:07:24;;;;;;;1.60;1.50;;;;;;;30.54;35.76;98962.97;6893699;28;20237;-85
2021/07/16 17:10:46;;;;;;;1.47;1.43;;;;;;;30.49;34.99;98952.81;6893109;28;20241;-84
2021/07/16 17:14:08;;;;;;;1.33;1.23;;;;;;;30.39;35.44;98960.69;6893742;28;20598;-84
2021/07/16 17:17:31;;;;;;;2.23;1.33;;;;;;;30.06;35.78;98948.41;6892427;28;20236;-85
2021/07/16 17:20:53;;;;;;;1.50;1.40;;;;;;;29.51;36.97;98959.34;6893212;28;20235;-85
2021/07/16 17:24:16;;;;;;;2.03;1.50;;;;;;;29.59;36.29;98922.41;6889519;28;20201;-84
2021/07/16 17:27:39;;;;;;;2.90;1.70;;;;;;;29.42;38.01;98960.47;6893318;28;20197;-84
2021/07/16 17:31:01;;;;;;;1.80;1.30;;;;;;;29.81;37.33;98963.97;6882051;28;20252;-84
2021/07/16 17:34:23;;;;;;;1.33;1.30;;;;;;;30.19;36.73;98964.97;6866497;28;20216;-84
2021/07/16 17:37:45;;;;;;;2.07;1.50;;;;;;;30.10;37.06;98963.34;6866478;28;20592;-85
2021/07/16 17:41:10;;;;;;;1.67;1.57;;;;;;;30.24;36.31;98967.59;6872887;28;20245;-85
2021/07/16 17:44:31;;;;;;;2.30;1.40;;;;;;;30.24;35.72;98964.81;6893474;28;20224;-84
2021/07/16 17:47:53;;;;;;;2.53;1.40;;;;;;;30.08;36.24;98969.19;6893478;28;20589;-84
2021/07/16 17:51:14;;;;;;;1.40;1.30;;;;;;;30.19;36.40;98970.53;6892137;28;20220;-85
2021/07/16 17:54:36;;;;;;;1.23;1.23;;;;;;;29.71;36.57;98963.47;6895759;28;20215;-84
2021/07/16 17:57:59;;;;;;;1.70;1.60;;;;;;;29.59;36.95;98969.66;6898243;28;20717;-84
2021/07/16 18:01:21;;;;;;;2.63;1.50;;;;;;;29.86;37.07;98982.44;6897241;28;20231;-85
2021/07/16 18:04:43;;;;;;;2.03;1.60;;;;;;;30.13;36.66;98966.28;6898560;28;20566;-84
2021/07/16 18:08:05;;;;;;;2.23;1.40;;;;;;;30.04;36.87;98972.97;6898216;28;20217;-84
2021/07/16 18:11:27;;;;;;;1.60;1.50;;;;;;;29.90;37.14;98977.88;6898172;28;20239;-83
2021/07/16 18:14:50;;;;;;;2.17;1.43;;;;;;;30.19;36.17;98970.53;6899022;28;20566;-83
2021/07/16 18:18:14;;;;;;;4.27;1.80;;;;;;;29.80;37.14;98975.41;6897548;28;20235;-83
2021/07/16 18:21:35;;;;;;;1.80;1.70;;;;;;;29.65;37.69;98979.50;6898318;28;20228;-83
2021/07/16 18:24:57;;;;;;;3.20;2.70;;;;;;;29.19;41.29;98983.94;6899002;28;20224;-83
2021/07/16 18:28:22;;;;;;;6.03;3.90;;;;;;;28.91;43.23;98988.81;6898377;28;20314;-83
2021/07/16 18:31:45;;;;;;;5.13;4.37;;;;;;;29.23;42.90;98985.72;6898304;28;20252;-84
2021/07/16 18:35:08;;;;;;;5.37;4.70;;;;;;;29.06;43.66;99002.31;6898919;28;20211;-83
2021/07/16 18:38:30;;;;;;;7.20;4.70;;;;;;;28.71;44.74;99002.47;6898055;28;20232;-83
2021/07/16 18:41:51;;;;;;;5.47;5.00;;;;;;;28.33;45.40;98993.69;6898212;28;20235;-83
2021/07/16 18:45:14;;;;;;;6.77;5.23;;;;;;;28.28;45.74;98996.59;6898205;28;20200;-83
2021/07/16 18:48:37;;;;;;;7.50;4.73;;;;;;;27.16;47.47;98915.50;6893460;28;20205;-83
2021/07/16 18:51:59;;;;;;;5.70;4.37;;;;;;;27.71;47.39;99022.31;6898581;28;21014;-83
2021/07/16 18:55:20;;;;;;;6.43;5.10;;;;;;;27.16;48.49;99001.34;6898260;28;20220;-83
2021/07/16 18:58:42;;;;;;;5.63;5.10;;;;;;;27.83;47.52;99025.38;6897641;28;20708;-83
2021/07/16 19:02:04;;;;;;;5.47;4.90;;;;;;;27.59;48.03;99023.97;6897933;28;20238;-82
2021/07/16 19:05:27;;;;;;;5.57;4.77;;;;;;;27.62;47.70;99028.91;6898431;28;20206;-83
2021/07/16 19:08:49;;;;;;;4.90;4.53;;;;;;;27.80;47.65;99044.59;6894265;28;20202;-83
2021/07/16 19:12:11;;;;;;;5.70;5.03;;;;;;;27.46;48.01;99045.03;6895796;28;20254;-83
2021/07/16 19:15:33;;;;;;;5.07;4.57;;;;;;;27.50;48.06;99048.00;6899271;28;20227;-83
2021/07/16 19:18:54;;;;;;;5.00;4.60;;;;;;;27.31;49.09;99069.44;6898842;28;20232;-83
2021/07/16 19:22:17;;;;;;;5.13;4.60;;;;;;;27.22;48.72;99068.50;6898098;28;20227;-83